Terminal Aerodrome Forecast
Issued by NWS Twin Cities, MN

Home | Current Version | Previous Version | Graphics & Text | Print | Product List | Glossary On
Versions: 1 2 3 4 5 6 7 8 9 10 11 12 13 14 15
948
FTUS43 KMPX 011120
TAFEAU
TAF
KEAU 011120Z 0112/0212 04009KT P6SM SCT060 BKN180
     FM011600 05009G16KT P6SM SCT060 BKN120
     FM020000 02004KT P6SM SKC=

USA.gov is the U.S. government's official web portal to all federal, state and local government web resources and services.